createdAt,value
2018-12-25T00:00:26.685Z,11.73
2018-12-25T00:02:55.606Z,11.83
2018-12-25T00:05:24.556Z,12.40
2018-12-25T00:07:53.874Z,12.40
2018-12-25T00:10:22.805Z,12.90
2018-12-25T00:12:51.674Z,12.23
2018-12-25T00:15:20.922Z,13.08
2018-12-25T00:17:50.077Z,13.40
2018-12-25T00:20:19.397Z,13.00
2018-12-25T00:22:48.269Z,11.90
2018-12-25T00:25:17.125Z,11.93
2018-12-25T00:27:46.703Z,12.70
2018-12-25T00:30:15.625Z,11.97
2018-12-25T00:32:44.578Z,12.55
2018-12-25T00:35:13.508Z,11.12
2018-12-25T00:37:42.542Z,12.23
2018-12-25T00:40:11.767Z,13.40
2018-12-25T00:42:40.723Z,12.98
2018-12-25T00:45:09.638Z,11.88
2018-12-25T00:47:38.614Z,12.23
2018-12-25T00:50:07.564Z,13.27
2018-12-25T00:52:36.493Z,13.90
2018-12-25T00:55:05.537Z,13.80
2018-12-25T00:57:34.557Z,15.05
2018-12-25T01:00:03.614Z,15.08
2018-12-25T01:02:32.550Z,13.18
2018-12-25T01:05:01.827Z,13.85
2018-12-25T01:07:30.834Z,14.00
2018-12-25T01:10:00.414Z,13.98
2018-12-25T01:12:29.536Z,14.03
2018-12-25T01:14:58.453Z,14.80
2018-12-25T01:17:27.502Z,14.05
2018-12-25T01:19:56.873Z,13.65
2018-12-25T01:22:26.118Z,12.73
2018-12-25T01:24:55.517Z,13.62
2018-12-25T01:27:25.189Z,12.47
2018-12-25T01:29:54.046Z,14.10
2018-12-25T01:32:22.909Z,14.00
2018-12-25T01:34:51.894Z,13.70
2018-12-25T01:37:20.834Z,13.60
2018-12-25T01:39:49.826Z,12.35
2018-12-25T01:42:18.761Z,13.03
2018-12-25T01:44:47.626Z,13.60
2018-12-25T01:47:16.917Z,13.08
2018-12-25T01:49:45.757Z,14.30
2018-12-25T01:52:14.762Z,14.65
2018-12-25T01:54:43.681Z,13.13
2018-12-25T01:57:12.990Z,14.13
2018-12-25T01:59:41.837Z,15.43
2018-12-25T02:02:10.689Z,14.53
2018-12-25T02:04:40.002Z,15.20
2018-12-25T02:07:09.269Z,14.13
2018-12-25T02:09:38.213Z,14.15
2018-12-25T02:12:07.135Z,14.95
2018-12-25T02:14:36.073Z,13.58
2018-12-25T02:17:05.073Z,14.33
2018-12-25T02:19:40.261Z,13.68
2018-12-25T02:22:04.832Z,14.10
2018-12-25T02:24:33.781Z,13.53
2018-12-25T02:27:02.725Z,14.28
2018-12-25T02:29:31.733Z,14.93
2018-12-25T02:32:00.598Z,13.35
2018-12-25T02:34:29.549Z,13.80
2018-12-25T02:36:58.419Z,14.50
2018-12-25T02:39:27.393Z,14.70
2018-12-25T02:41:56.278Z,14.50
2018-12-25T02:44:25.288Z,15.45
2018-12-25T02:46:54.601Z,14.73
2018-12-25T02:49:23.669Z,14.95
2018-12-25T02:51:52.654Z,14.60
2018-12-25T02:54:21.674Z,15.03
2018-12-25T02:56:50.706Z,14.43
2018-12-25T02:59:19.650Z,15.80
2018-12-25T03:01:48.606Z,15.83
2018-12-25T03:04:17.519Z,16.27
2018-12-25T03:06:46.543Z,14.28
2018-12-25T03:09:15.625Z,15.45
2018-12-25T03:11:44.558Z,15.43
2018-12-25T03:14:13.707Z,15.90
2018-12-25T03:16:42.638Z,15.85
2018-12-25T03:19:11.604Z,15.85
2018-12-25T03:21:40.601Z,13.10
2018-12-25T03:24:09.565Z,13.93
2018-12-25T03:26:38.582Z,14.90
2018-12-25T03:29:07.626Z,14.00
2018-12-25T03:31:36.570Z,14.30
2018-12-25T03:34:05.588Z,15.55
2018-12-25T03:36:34.602Z,15.10
2018-12-25T03:39:04.722Z,14.23
2018-12-25T03:41:34.098Z,15.80
2018-12-25T03:44:03.400Z,15.10
2018-12-25T03:46:32.290Z,15.60
2018-12-25T03:49:01.205Z,15.80
2018-12-25T03:51:30.477Z,11.27
2018-12-25T03:53:59.343Z,14.68
2018-12-25T03:56:29.026Z,16.85
2018-12-25T03:58:57.960Z,18.15
2018-12-25T04:01:26.976Z,18.70
2018-12-25T04:03:55.913Z,18.12
2018-12-25T04:06:24.777Z,18.40
2018-12-25T04:08:53.991Z,18.30
2018-12-25T04:11:22.939Z,15.90
2018-12-25T04:13:52.129Z,14.95
2018-12-25T04:16:21.381Z,15.45
2018-12-25T04:18:50.677Z,16.27
2018-12-25T04:21:19.689Z,15.72
2018-12-25T04:23:48.961Z,14.50
2018-12-25T04:26:17.910Z,14.80
2018-12-25T04:28:46.848Z,16.12
2018-12-25T04:31:15.734Z,17.17
2018-12-25T04:33:44.682Z,15.48
2018-12-25T04:36:13.554Z,14.60
2018-12-25T04:38:42.423Z,14.58
2018-12-25T04:41:11.353Z,15.00
2018-12-25T04:43:40.330Z,14.60
2018-12-25T04:46:09.202Z,15.90
2018-12-25T04:48:38.078Z,14.95
2018-12-25T04:51:06.950Z,17.20
2018-12-25T04:53:35.884Z,17.02
2018-12-25T04:56:04.842Z,16.47
2018-12-25T04:58:33.714Z,16.95
2018-12-25T05:01:02.740Z,16.07
2018-12-25T05:03:31.977Z,16.17
2018-12-25T05:06:01.337Z,15.60
2018-12-25T05:08:30.269Z,15.60
2018-12-25T05:10:59.944Z,18.07
2018-12-25T05:13:29.162Z,18.20
2018-12-25T05:15:58.190Z,16.80
2018-12-25T05:18:27.129Z,17.95
2018-12-25T05:20:56.000Z,18.90
2018-12-25T05:23:25.011Z,17.40
2018-12-25T05:25:54.021Z,18.00
2018-12-25T05:28:22.986Z,16.37
2018-12-25T05:30:52.271Z,16.20
2018-12-25T05:33:21.146Z,14.25
2018-12-25T05:35:50.022Z,15.65
2018-12-25T05:38:18.964Z,14.85
2018-12-25T05:40:47.888Z,15.15
2018-12-25T05:43:16.898Z,15.28
2018-12-25T05:45:45.837Z,15.80
2018-12-25T05:48:14.815Z,16.30
2018-12-25T05:50:46.832Z,18.45
2018-12-25T05:53:14.425Z,18.85
2018-12-25T05:55:43.297Z,17.70
2018-12-25T05:58:12.237Z,17.98
2018-12-25T06:00:41.178Z,17.80
2018-12-25T06:03:10.049Z,15.95
2018-12-25T06:05:38.913Z,14.80
2018-12-25T06:08:07.776Z,14.40
2018-12-25T06:10:36.734Z,15.08
2018-12-25T06:13:05.700Z,15.50
2018-12-25T06:15:35.008Z,15.00
2018-12-25T06:18:04.309Z,15.53
2018-12-25T06:20:33.181Z,16.52
2018-12-25T06:23:02.334Z,16.52
2018-12-25T06:25:31.358Z,15.13
2018-12-25T06:28:01.034Z,15.18
2018-12-25T06:30:30.344Z,14.75
2018-12-25T06:32:59.286Z,15.65
2018-12-25T06:35:28.658Z,14.85
2018-12-25T06:37:57.929Z,14.90
2018-12-25T06:40:26.870Z,14.68
2018-12-25T06:42:56.118Z,14.93
2018-12-25T06:45:25.094Z,15.13
2018-12-25T06:47:53.987Z,16.30
2018-12-25T06:50:22.914Z,17.30
2018-12-25T06:52:51.790Z,16.47
2018-12-25T06:55:20.663Z,17.62
2018-12-25T06:57:49.825Z,15.32
2018-12-25T07:00:18.848Z,18.98
2018-12-25T07:02:47.785Z,21.45
2018-12-25T07:05:16.717Z,19.60
2018-12-25T07:07:46.247Z,18.40
2018-12-25T07:10:15.273Z,17.50
2018-12-25T07:12:44.324Z,15.63
2018-12-25T07:15:13.525Z,14.38
2018-12-25T07:17:43.171Z,14.80
2018-12-25T07:20:12.130Z,14.43
2018-12-25T07:22:40.998Z,13.55
2018-12-25T07:25:09.941Z,15.28
2018-12-25T07:27:38.959Z,16.10
2018-12-25T07:30:08.046Z,13.22
2018-12-25T07:32:37.049Z,13.90
2018-12-25T07:35:25.110Z,13.97
2018-12-25T07:37:54.045Z,14.30
2018-12-25T07:40:23.001Z,15.40
2018-12-25T07:42:51.860Z,15.30
2018-12-25T07:45:20.741Z,15.30
2018-12-25T07:47:49.677Z,15.05
2018-12-25T07:50:18.982Z,14.80
2018-12-25T07:52:47.941Z,14.18
2018-12-25T07:55:16.960Z,14.00
2018-12-25T07:57:46.371Z,17.37
2018-12-25T08:00:15.318Z,17.92
2018-12-25T08:02:44.253Z,17.73
2018-12-25T08:05:13.549Z,16.77
2018-12-25T08:07:42.487Z,16.33
2018-12-25T08:10:11.870Z,14.07
2018-12-25T08:12:41.094Z,14.40
2018-12-25T08:15:10.109Z,16.50
2018-12-25T08:17:39.386Z,16.40
2018-12-25T08:20:08.398Z,16.10
2018-12-25T08:22:37.336Z,15.50
2018-12-25T08:25:06.363Z,15.20
2018-12-25T08:27:35.284Z,15.95
2018-12-25T08:30:04.383Z,14.80
2018-12-25T08:32:33.319Z,14.75
2018-12-25T08:35:02.262Z,14.63
2018-12-25T08:37:31.213Z,12.68
2018-12-25T08:40:00.274Z,13.28
2018-12-25T08:42:29.174Z,12.93
2018-12-25T08:44:58.125Z,14.30
2018-12-25T08:47:27.071Z,13.63
2018-12-25T08:49:56.137Z,14.50
2018-12-25T08:52:25.086Z,14.50
2018-12-25T08:54:54.025Z,12.37
2018-12-25T08:57:23.305Z,15.08
2018-12-25T08:59:53.074Z,14.47
2018-12-25T09:02:22.354Z,12.37
2018-12-25T09:04:51.315Z,15.50
2018-12-25T09:07:20.173Z,15.58
2018-12-25T09:10:08.285Z,14.87
2018-12-25T09:12:37.170Z,13.27
2018-12-25T09:15:06.266Z,13.30
2018-12-25T09:17:35.145Z,12.98
2018-12-25T09:20:04.686Z,13.50
2018-12-25T09:22:33.725Z,12.25
2018-12-25T09:25:02.745Z,12.40
2018-12-25T09:27:31.794Z,10.88
2018-12-25T09:30:00.873Z,12.23
2018-12-25T09:32:29.770Z,12.85
2018-12-25T09:34:58.701Z,15.98
2018-12-25T09:37:27.641Z,10.53
2018-12-25T09:39:56.573Z,11.48
2018-12-25T09:42:25.457Z,10.70
2018-12-25T09:44:54.338Z,10.90
2018-12-25T09:47:23.298Z,10.48
2018-12-25T09:49:52.288Z,10.20
2018-12-25T09:52:21.527Z,11.10
2018-12-25T09:54:50.757Z,10.08
2018-12-25T09:57:19.785Z,9.95
2018-12-25T09:59:48.714Z,10.80
2018-12-25T10:02:17.897Z,10.10
2018-12-25T10:04:46.898Z,9.98
2018-12-25T10:07:15.909Z,10.43
2018-12-25T10:09:44.921Z,10.98
2018-12-25T10:12:13.941Z,10.90
2018-12-25T10:14:43.264Z,9.70
2018-12-25T10:17:12.196Z,9.03
2018-12-25T10:19:41.213Z,8.80
2018-12-25T10:22:10.246Z,8.68
2018-12-25T10:24:39.181Z,10.20
2018-12-25T10:27:08.533Z,10.78
2018-12-25T10:29:37.582Z,11.57
2018-12-25T10:32:06.525Z,9.90
2018-12-25T10:34:35.473Z,9.15
2018-12-25T10:37:04.473Z,8.30
2018-12-25T10:39:33.417Z,8.40
2018-12-25T10:42:02.715Z,8.50
2018-12-25T10:44:31.713Z,8.58
2018-12-25T10:47:00.714Z,8.88
2018-12-25T10:49:30.089Z,8.80
2018-12-25T10:51:59.378Z,8.60
2018-12-25T10:54:28.317Z,7.85
2018-12-25T10:56:57.320Z,7.50
2018-12-25T10:59:27.407Z,8.50
2018-12-25T11:01:56.349Z,8.00
2018-12-25T11:04:25.434Z,8.53
2018-12-25T11:06:54.377Z,8.50
2018-12-25T11:09:23.380Z,8.48
2018-12-25T11:11:52.311Z,8.78
2018-12-25T11:14:21.262Z,8.53
2018-12-25T11:16:50.209Z,8.50
2018-12-25T11:19:19.257Z,8.50
2018-12-25T11:21:48.552Z,8.90
2018-12-25T11:24:17.730Z,9.50
2018-12-25T11:26:47.053Z,9.73
2018-12-25T11:29:15.915Z,8.85
2018-12-25T11:31:44.941Z,8.98
2018-12-25T11:34:13.966Z,9.90
2018-12-25T11:36:42.990Z,8.70
2018-12-25T11:39:11.912Z,8.40
2018-12-25T11:41:40.846Z,9.78
2018-12-25T11:44:09.777Z,10.80
2018-12-25T11:46:38.662Z,10.78
2018-12-25T11:49:07.942Z,9.10
2018-12-25T11:51:36.886Z,7.92
2018-12-25T11:54:08.741Z,6.97
2018-12-25T11:56:37.601Z,7.53
2018-12-25T11:59:06.461Z,9.30
2018-12-25T12:01:35.732Z,6.97
2018-12-25T12:04:05.177Z,7.95
2018-12-25T12:06:34.461Z,8.00
2018-12-25T12:09:05.187Z,7.25
2018-12-25T12:11:34.144Z,9.35
2018-12-25T12:14:03.174Z,9.90
2018-12-25T12:16:32.398Z,8.50
2018-12-25T12:19:01.342Z,8.40
2018-12-25T12:21:30.289Z,8.10
2018-12-25T12:23:59.133Z,7.80
2018-12-25T12:26:28.141Z,8.60
2018-12-25T12:28:57.210Z,8.05
2018-12-25T12:31:26.161Z,7.50
2018-12-25T12:33:55.172Z,7.65
2018-12-25T12:36:24.533Z,7.60
2018-12-25T12:38:53.538Z,7.83
2018-12-25T12:41:22.833Z,8.10
2018-12-25T12:43:52.061Z,8.23
2018-12-25T12:46:21.089Z,7.10
2018-12-25T12:48:50.105Z,7.60
2018-12-25T12:51:19.736Z,7.60
2018-12-25T12:53:48.591Z,7.22
2018-12-25T12:56:17.814Z,7.22
2018-12-25T12:58:46.758Z,7.17
2018-12-25T13:01:16.001Z,7.28
2018-12-25T13:03:44.885Z,7.72
2018-12-25T13:06:13.910Z,7.65
2018-12-25T13:08:42.781Z,7.80
2018-12-25T13:11:12.061Z,7.30
2018-12-25T13:13:41.089Z,6.50
2018-12-25T13:16:10.013Z,8.00
2018-12-25T13:18:39.043Z,7.45
2018-12-25T13:21:08.035Z,7.20
2018-12-25T13:23:36.922Z,8.00
2018-12-25T13:26:05.866Z,7.00
2018-12-25T13:28:34.802Z,7.83
2018-12-25T13:31:03.809Z,7.40
2018-12-25T13:33:32.752Z,8.13
2018-12-25T13:36:01.779Z,7.33
2018-12-25T13:38:30.814Z,8.48
2018-12-25T13:41:00.263Z,7.95
2018-12-25T13:43:29.345Z,7.20
2018-12-25T13:45:58.607Z,7.50
2018-12-25T13:48:27.890Z,8.50
2018-12-25T13:50:56.754Z,7.67
2018-12-25T13:53:26.078Z,8.60
2018-12-25T13:55:54.925Z,7.90
2018-12-25T13:58:23.803Z,7.70
2018-12-25T14:00:52.824Z,7.47
2018-12-25T14:03:21.963Z,8.63
2018-12-25T14:05:50.909Z,7.70
2018-12-25T14:08:19.842Z,8.43
2018-12-25T14:10:48.776Z,8.50
2018-12-25T14:13:18.153Z,8.15
2018-12-25T14:15:47.170Z,7.83
2018-12-25T14:18:16.036Z,8.10
2018-12-25T14:20:45.088Z,7.72
2018-12-25T14:23:14.017Z,7.97
2018-12-25T14:25:42.965Z,8.90
2018-12-25T14:28:11.970Z,8.65
2018-12-25T14:30:40.948Z,8.70
2018-12-25T14:33:09.984Z,8.70
2018-12-25T14:35:39.094Z,9.60
2018-12-25T14:38:08.050Z,9.45
2018-12-25T14:40:37.117Z,8.48
2018-12-25T14:43:06.057Z,9.00
2018-12-25T14:45:35.086Z,9.50
2018-12-25T14:48:04.097Z,9.50
2018-12-25T14:50:33.400Z,9.68
2018-12-25T14:53:02.695Z,10.70
2018-12-25T14:55:31.704Z,10.05
2018-12-25T14:58:00.581Z,10.23
2018-12-25T15:00:29.517Z,10.20
2018-12-25T15:02:58.469Z,10.93
2018-12-25T15:05:27.518Z,11.75
2018-12-25T15:07:56.889Z,12.07
2018-12-25T15:10:25.854Z,10.77
2018-12-25T15:12:55.064Z,10.15
2018-12-25T15:15:24.373Z,10.18
2018-12-25T15:17:53.335Z,9.80
2018-12-25T15:20:22.343Z,10.33
2018-12-25T15:22:51.386Z,10.20
2018-12-25T15:25:20.331Z,10.70
2018-12-25T15:27:49.376Z,13.65
2018-12-25T15:30:18.437Z,15.00
2018-12-25T15:32:47.386Z,19.20
2018-12-25T15:35:17.073Z,14.28
2018-12-25T15:37:46.119Z,16.75
2018-12-25T15:40:15.146Z,16.37
2018-12-25T15:42:44.185Z,17.00
2018-12-25T15:45:13.506Z,13.32
2018-12-25T15:47:42.552Z,12.05
2018-12-25T15:50:11.582Z,13.00
2018-12-25T15:52:40.534Z,12.53
2018-12-25T15:55:09.813Z,12.50
2018-12-25T15:57:38.794Z,12.82
2018-12-25T16:00:12.421Z,12.98
2018-12-25T16:02:41.771Z,14.40
2018-12-25T16:05:11.082Z,12.40
2018-12-25T16:07:40.034Z,12.05
2018-12-25T16:10:09.045Z,11.68
2018-12-25T16:12:38.228Z,11.53
2018-12-25T16:15:07.277Z,10.68
2018-12-25T16:17:36.237Z,10.20
2018-12-25T16:20:07.837Z,11.40
2018-12-25T16:22:37.095Z,11.73
2018-12-25T16:25:06.133Z,11.48
2018-12-25T16:27:35.446Z,11.60
2018-12-25T16:30:05.566Z,10.82
2018-12-25T16:32:34.452Z,11.88
2018-12-25T16:35:03.453Z,12.65
2018-12-25T16:37:32.416Z,13.30
2018-12-25T16:40:01.347Z,13.13
2018-12-25T16:42:30.233Z,12.45
2018-12-25T16:44:59.106Z,14.43
2018-12-25T16:47:28.077Z,18.17
2018-12-25T16:49:57.354Z,18.20
2018-12-25T16:52:26.306Z,13.75
2018-12-25T16:54:55.160Z,14.68
2018-12-25T16:57:24.110Z,14.20
2018-12-25T16:59:53.121Z,14.38
2018-12-25T17:02:22.142Z,13.63
2018-12-25T17:04:51.157Z,14.23
2018-12-25T17:07:20.038Z,13.45
2018-12-25T17:09:49.070Z,12.60
2018-12-25T17:12:18.090Z,12.58
2018-12-25T17:14:47.109Z,11.88
2018-12-25T17:17:16.041Z,12.33
2018-12-25T17:19:45.114Z,13.03
2018-12-25T17:22:13.977Z,14.03
2018-12-25T17:24:42.855Z,16.87
2018-12-25T17:27:12.542Z,17.67
2018-12-25T17:29:41.490Z,15.10
2018-12-25T17:32:10.434Z,14.93
2018-12-25T17:34:39.401Z,13.58
2018-12-25T17:37:08.453Z,14.58
2018-12-25T17:39:37.393Z,12.88
2018-12-25T17:42:06.668Z,14.40
2018-12-25T17:44:35.622Z,13.55
2018-12-25T17:47:04.641Z,13.93
2018-12-25T17:49:33.676Z,14.47
2018-12-25T17:52:02.694Z,12.78
2018-12-25T17:54:32.146Z,13.88
2018-12-25T17:57:01.097Z,12.80
2018-12-25T17:59:30.326Z,13.25
2018-12-25T18:01:59.185Z,12.33
2018-12-25T18:04:28.133Z,13.50
2018-12-25T18:06:57.005Z,13.85
2018-12-25T18:09:28.309Z,13.30
2018-12-25T18:11:57.035Z,13.57
2018-12-25T18:14:26.213Z,14.75
2018-12-25T18:16:55.085Z,14.30
2018-12-25T18:19:24.133Z,17.73
2018-12-25T18:21:53.407Z,17.50
2018-12-25T18:24:22.778Z,19.53
2018-12-25T18:26:52.046Z,19.17
2018-12-25T18:29:21.249Z,19.57
2018-12-25T18:31:50.185Z,15.88
2018-12-25T18:34:19.065Z,23.02
2018-12-25T18:37:07.181Z,30.85
2018-12-25T18:39:56.393Z,65.95
2018-12-25T18:42:25.324Z,18.50
2018-12-25T18:44:54.332Z,13.65
2018-12-25T18:47:26.576Z,12.25
2018-12-25T18:49:55.520Z,12.78
2018-12-25T18:52:24.442Z,13.28
2018-12-25T18:54:53.456Z,13.67
2018-12-25T18:57:22.617Z,13.22
2018-12-25T18:59:51.878Z,12.90
2018-12-25T19:02:20.881Z,13.80
2018-12-25T19:04:50.238Z,14.20
2018-12-25T19:07:19.174Z,12.90
2018-12-25T19:09:48.130Z,11.50
2018-12-25T19:12:17.142Z,12.80
2018-12-25T19:15:02.737Z,12.40
2018-12-25T19:17:31.746Z,12.88
2018-12-25T19:20:00.697Z,13.58
2018-12-25T19:22:30.729Z,13.40
2018-12-25T19:24:59.749Z,13.98
2018-12-25T19:27:48.148Z,13.60
2018-12-25T19:30:18.301Z,14.55
2018-12-25T19:32:47.265Z,16.27
2018-12-25T19:35:16.280Z,17.15
2018-12-25T19:37:45.277Z,14.45
2018-12-25T19:40:14.200Z,14.55
2018-12-25T19:42:43.560Z,14.10
2018-12-25T19:45:32.161Z,14.28
2018-12-25T19:48:01.197Z,16.77
2018-12-25T19:50:30.542Z,16.10
2018-12-25T19:52:59.555Z,16.60
2018-12-25T19:55:28.565Z,16.60
2018-12-25T19:57:57.597Z,19.10
2018-12-25T20:00:26.642Z,17.15
2018-12-25T20:03:02.760Z,19.10
2018-12-25T20:06:03.597Z,19.80
2018-12-25T20:08:53.389Z,17.25
2018-12-25T20:12:15.731Z,14.85
2018-12-25T20:15:31.118Z,15.10
2018-12-25T20:18:37.774Z,15.43
2018-12-25T20:21:47.917Z,16.10
2018-12-25T20:24:43.210Z,17.40
2018-12-25T20:27:45.297Z,17.60
2018-12-25T20:30:50.357Z,15.60
2018-12-25T20:34:17.489Z,14.20
2018-12-25T20:37:36.004Z,14.45
2018-12-25T20:40:41.718Z,15.00
2018-12-25T20:43:49.331Z,14.55
2018-12-25T20:46:56.868Z,14.78
2018-12-25T20:50:19.348Z,13.35
2018-12-25T20:53:31.281Z,14.80
2018-12-25T20:56:36.326Z,15.00
2018-12-25T21:00:11.157Z,17.82
2018-12-25T21:03:42.794Z,20.27
2018-12-25T21:07:07.533Z,13.60
2018-12-25T21:10:14.850Z,22.65
2018-12-25T21:13:34.449Z,19.82
2018-12-25T21:16:36.694Z,19.00
2018-12-25T21:19:45.634Z,15.00
2018-12-25T21:22:51.389Z,13.60
2018-12-25T21:25:56.588Z,16.42
2018-12-25T21:28:24.477Z,15.57
2018-12-25T21:30:53.498Z,15.23
2018-12-25T21:33:22.521Z,17.15
2018-12-25T21:35:51.566Z,16.60
2018-12-25T21:38:20.578Z,17.05
2018-12-25T21:40:50.025Z,17.98
2018-12-25T21:43:19.373Z,16.07
2018-12-25T21:45:48.455Z,16.10
2018-12-25T21:48:17.889Z,15.15
2018-12-25T21:50:47.169Z,15.38
2018-12-25T21:53:16.706Z,16.20
2018-12-25T21:55:45.817Z,16.48
2018-12-25T21:58:15.121Z,14.70
2018-12-25T22:00:44.133Z,14.75
2018-12-25T22:03:14.245Z,16.30
2018-12-25T22:05:43.338Z,15.10
2018-12-25T22:08:12.650Z,14.20
2018-12-25T22:10:41.546Z,16.30
2018-12-25T22:13:10.805Z,16.75
2018-12-25T22:15:58.913Z,15.95
2018-12-25T22:18:28.045Z,15.23
2018-12-25T22:20:57.153Z,14.50
2018-12-25T22:23:26.099Z,15.85
2018-12-25T22:25:55.164Z,15.88
2018-12-25T22:28:24.585Z,15.50
2018-12-25T22:30:53.453Z,16.20
2018-12-25T22:33:42.163Z,14.50
2018-12-25T22:36:30.383Z,14.40
2018-12-25T22:38:59.327Z,14.30
2018-12-25T22:41:28.353Z,16.12
2018-12-25T22:43:57.301Z,14.20
2018-12-25T22:46:26.237Z,15.30
2018-12-25T22:48:55.102Z,16.15
2018-12-25T22:51:24.478Z,16.00
2018-12-25T22:53:53.775Z,16.35
2018-12-25T22:56:22.643Z,16.93
2018-12-25T22:58:51.661Z,15.70
2018-12-25T23:01:20.759Z,14.78
2018-12-25T23:03:49.773Z,14.90
2018-12-25T23:06:18.809Z,15.03
2018-12-25T23:08:47.749Z,15.20
2018-12-25T23:11:16.681Z,16.30
2018-12-25T23:13:45.560Z,16.62
2018-12-25T23:16:14.574Z,13.72
2018-12-25T23:18:43.881Z,15.20
2018-12-25T23:21:12.742Z,14.90
2018-12-25T23:23:41.718Z,16.27
2018-12-25T23:26:10.581Z,16.40
2018-12-25T23:28:39.464Z,15.68
2018-12-25T23:31:08.473Z,16.27
2018-12-25T23:33:37.561Z,16.17
2018-12-25T23:36:06.574Z,15.25
2018-12-25T23:38:35.445Z,15.28
2018-12-25T23:41:04.485Z,14.95
2018-12-25T23:43:33.366Z,14.65
2018-12-25T23:46:02.754Z,15.30
2018-12-25T23:48:31.757Z,15.65
2018-12-25T23:51:00.689Z,15.28
2018-12-25T23:53:29.704Z,15.90
2018-12-25T23:55:58.702Z,15.73
2018-12-25T23:58:27.590Z,16.50
